createdAt,value
2022-10-04T00:01:28.093Z,13.26
2022-10-04T00:03:22.878Z,13.29
2022-10-04T00:05:06.362Z,13.30
2022-10-04T00:06:45.134Z,13.31
2022-10-04T00:08:41.083Z,13.30
2022-10-04T00:10:32.426Z,13.28
2022-10-04T00:12:05.943Z,13.28
2022-10-04T00:13:38.781Z,13.28
2022-10-04T00:15:29.724Z,13.30
2022-10-04T00:17:09.660Z,13.23
2022-10-04T00:18:45.796Z,13.22
2022-10-04T00:20:53.873Z,13.22
2022-10-04T00:22:33.304Z,13.16
2022-10-04T00:26:00.969Z,13.22
2022-10-04T00:27:33.414Z,13.22
2022-10-04T00:29:29.683Z,13.28
2022-10-04T00:31:22.252Z,13.31
2022-10-04T00:33:02.684Z,13.33
2022-10-04T00:34:47.752Z,13.30
2022-10-04T00:36:25.645Z,13.38
2022-10-04T00:38:08.944Z,13.40
2022-10-04T00:39:43.105Z,13.41
2022-10-04T00:41:15.455Z,13.40
2022-10-04T00:42:59.505Z,13.42
2022-10-04T00:44:47.638Z,13.44
2022-10-04T00:46:23.588Z,13.38
2022-10-04T00:48:03.690Z,13.40
2022-10-04T00:49:42.017Z,13.44
2022-10-04T00:51:27.369Z,13.40
2022-10-04T00:53:01.102Z,13.43
2022-10-04T00:54:36.243Z,13.45
2022-10-04T00:56:12.896Z,13.46
2022-10-04T00:57:47.376Z,13.48
2022-10-04T00:59:49.177Z,13.51
2022-10-04T01:01:24.497Z,13.48
2022-10-04T01:03:02.199Z,13.48
2022-10-04T01:04:42.322Z,13.50
2022-10-04T01:06:15.370Z,13.50
2022-10-04T01:07:50.684Z,13.49
2022-10-04T01:09:23.192Z,13.49
2022-10-04T01:10:57.426Z,13.51
2022-10-04T01:12:36.859Z,13.49
2022-10-04T01:14:21.141Z,13.55
2022-10-04T01:16:12.167Z,13.54
2022-10-04T01:18:09.795Z,13.56
2022-10-04T01:19:51.679Z,13.53
2022-10-04T01:21:27.631Z,13.49
2022-10-04T01:22:59.721Z,13.48
2022-10-04T01:24:37.066Z,13.52
2022-10-04T01:26:35.343Z,13.52
2022-10-04T01:28:07.405Z,13.49
2022-10-04T01:29:39.499Z,13.47
2022-10-04T01:31:11.531Z,13.45
2022-10-04T01:32:45.244Z,13.45
2022-10-04T01:34:22.636Z,13.48
2022-10-04T01:35:54.734Z,13.43
2022-10-04T01:37:27.155Z,13.44
2022-10-04T01:39:02.373Z,13.43
2022-10-04T01:40:36.119Z,13.45
2022-10-04T01:42:10.877Z,13.41
2022-10-04T01:43:44.388Z,13.39
2022-10-04T01:45:51.858Z,13.41
2022-10-04T01:47:23.772Z,13.32
2022-10-04T01:48:57.340Z,13.34
2022-10-04T01:50:35.165Z,13.31
2022-10-04T01:52:26.791Z,13.32
2022-10-04T01:54:10.642Z,13.33
2022-10-04T01:55:42.802Z,13.39
2022-10-04T01:57:18.484Z,13.35
2022-10-04T01:58:53.279Z,13.34
2022-10-04T02:00:25.520Z,13.27
2022-10-04T02:02:07.500Z,13.33
2022-10-04T02:03:51.660Z,13.28
2022-10-04T02:05:31.728Z,13.27
2022-10-04T02:07:04.031Z,13.31
2022-10-04T02:08:39.987Z,13.40
2022-10-04T02:10:17.821Z,13.40
2022-10-04T02:11:54.485Z,13.36
2022-10-04T02:13:29.769Z,13.35
2022-10-04T02:15:03.827Z,13.39
2022-10-04T02:16:39.753Z,13.41
2022-10-04T02:18:13.959Z,13.41
2022-10-04T02:19:46.168Z,13.43
2022-10-04T02:21:19.381Z,13.45
2022-10-04T02:22:57.150Z,13.39
2022-10-04T02:24:29.412Z,13.42
2022-10-04T02:26:05.916Z,13.45
2022-10-04T02:27:37.869Z,13.45
2022-10-04T02:29:10.264Z,13.48
2022-10-04T02:31:08.715Z,13.52
2022-10-04T02:32:58.239Z,13.51
2022-10-04T02:34:31.130Z,13.53
2022-10-04T02:36:03.110Z,13.50
2022-10-04T02:37:35.474Z,13.56
2022-10-04T02:40:47.242Z,13.54
2022-10-04T02:42:34.950Z,13.61
2022-10-04T02:44:20.797Z,13.62
2022-10-04T02:46:03.203Z,13.64
2022-10-04T02:48:04.215Z,13.65
2022-10-04T02:49:42.300Z,13.64
2022-10-04T02:51:17.283Z,13.65
2022-10-04T02:52:54.104Z,13.65
2022-10-04T02:54:30.269Z,13.64
2022-10-04T02:56:03.086Z,13.63
2022-10-04T02:57:35.432Z,13.60
2022-10-04T02:59:07.914Z,13.63
2022-10-04T03:00:50.929Z,13.68
2022-10-04T03:02:31.201Z,13.70
2022-10-04T03:04:03.768Z,13.66
2022-10-04T03:05:36.352Z,13.68
2022-10-04T03:07:09.062Z,13.66
2022-10-04T03:08:43.993Z,13.70
2022-10-04T03:10:15.921Z,13.67
2022-10-04T03:11:49.962Z,13.65
2022-10-04T03:13:23.153Z,13.67
2022-10-04T03:14:55.841Z,13.70
2022-10-04T03:16:38.874Z,13.74
2022-10-04T03:18:11.265Z,13.68
2022-10-04T03:19:44.402Z,13.70
2022-10-04T03:21:18.524Z,13.69
2022-10-04T03:22:55.753Z,13.71
2022-10-04T03:24:36.603Z,13.70
2022-10-04T03:26:40.165Z,13.73
2022-10-04T03:28:12.283Z,13.69
2022-10-04T03:29:44.582Z,13.70
2022-10-04T03:31:16.934Z,13.71
2022-10-04T03:32:49.763Z,13.72
2022-10-04T03:34:28.100Z,13.73
2022-10-04T03:36:01.226Z,13.70
2022-10-04T03:37:36.988Z,13.70
2022-10-04T03:39:10.723Z,13.70
2022-10-04T03:40:51.854Z,13.69
2022-10-04T03:42:26.760Z,13.68
2022-10-04T03:44:04.758Z,13.64
2022-10-04T03:45:37.288Z,13.63
2022-10-04T03:47:15.168Z,13.68
2022-10-04T03:48:50.587Z,13.66
2022-10-04T03:50:26.815Z,13.63
2022-10-04T03:51:59.428Z,13.56
2022-10-04T03:53:35.824Z,13.60
2022-10-04T03:55:09.865Z,13.60
2022-10-04T03:56:41.904Z,13.55
2022-10-04T03:58:17.605Z,13.50
2022-10-04T03:59:51.142Z,13.47
2022-10-04T04:01:40.944Z,13.49
2022-10-04T04:03:17.210Z,13.44
2022-10-04T04:05:16.534Z,13.46
2022-10-04T04:08:28.147Z,13.35
2022-10-04T04:10:05.499Z,13.33
2022-10-04T04:11:37.683Z,13.25
2022-10-04T04:13:30.057Z,13.30
2022-10-04T04:15:02.703Z,13.27
2022-10-04T04:16:35.046Z,13.22
2022-10-04T04:18:15.779Z,13.19
2022-10-04T04:19:47.943Z,13.16
2022-10-04T04:21:21.165Z,13.18
2022-10-04T04:23:19.368Z,13.18
2022-10-04T04:24:52.416Z,13.10
2022-10-04T04:26:44.375Z,13.04
2022-10-04T04:28:29.131Z,13.00
2022-10-04T04:30:02.129Z,12.92
2022-10-04T04:31:42.900Z,12.90
2022-10-04T04:33:25.116Z,12.91
2022-10-04T04:35:08.170Z,12.90
2022-10-04T04:36:41.918Z,12.90
2022-10-04T04:38:16.754Z,12.90
2022-10-04T04:39:58.185Z,12.92
2022-10-04T04:43:07.294Z,12.90
2022-10-04T04:44:56.993Z,12.91
2022-10-04T04:46:29.551Z,12.90
2022-10-04T04:48:03.827Z,12.92
2022-10-04T04:49:40.124Z,12.95
2022-10-04T04:51:19.993Z,13.00
2022-10-04T04:53:16.920Z,13.04
2022-10-04T04:54:50.327Z,13.01
2022-10-04T04:56:26.435Z,13.10
2022-10-04T04:57:59.413Z,13.10
2022-10-04T04:59:31.632Z,13.06
2022-10-04T05:01:08.758Z,13.04
2022-10-04T05:02:53.795Z,13.08
2022-10-04T05:04:30.157Z,13.06
2022-10-04T05:06:05.247Z,13.06
2022-10-04T05:07:37.357Z,13.09
2022-10-04T05:09:42.098Z,13.17
2022-10-04T05:12:52.492Z,13.14
2022-10-04T05:14:24.580Z,13.20
2022-10-04T05:15:58.714Z,13.22
2022-10-04T05:17:34.159Z,13.23
2022-10-04T05:19:09.481Z,13.26
2022-10-04T05:20:45.816Z,13.27
2022-10-04T05:22:21.209Z,13.29
2022-10-04T05:23:53.914Z,13.30
2022-10-04T05:25:30.560Z,13.33
2022-10-04T05:27:06.121Z,13.36
2022-10-04T05:28:38.282Z,13.39
2022-10-04T05:30:40.674Z,13.46
2022-10-04T05:32:34.970Z,13.48
2022-10-04T05:34:29.368Z,13.49
2022-10-04T05:36:01.346Z,13.53
2022-10-04T05:37:43.126Z,13.55
2022-10-04T05:39:23.694Z,13.59
2022-10-04T05:41:08.501Z,13.57
2022-10-04T05:42:47.985Z,13.57
2022-10-04T05:44:29.357Z,13.56
2022-10-04T05:46:21.288Z,13.57
2022-10-04T05:47:55.501Z,13.55
2022-10-04T05:49:31.811Z,13.55
2022-10-04T05:51:19.128Z,13.52
2022-10-04T05:52:52.376Z,13.54
2022-10-04T05:54:27.882Z,13.54
2022-10-04T05:56:26.128Z,13.60
2022-10-04T05:58:10.649Z,13.60
2022-10-04T05:59:52.121Z,13.54
2022-10-04T06:01:52.298Z,13.61
2022-10-04T06:03:33.304Z,13.53
2022-10-04T06:05:12.853Z,13.53
2022-10-04T06:06:58.845Z,13.53
2022-10-04T06:08:50.842Z,13.54
2022-10-04T06:10:26.384Z,13.52
2022-10-04T06:12:08.792Z,13.56
2022-10-04T06:13:52.551Z,13.57
2022-10-04T06:15:45.670Z,13.59
2022-10-04T06:17:50.691Z,13.62
2022-10-04T06:19:31.547Z,13.61
2022-10-04T06:21:09.573Z,13.59
2022-10-04T06:22:47.224Z,13.63
2022-10-04T06:24:27.158Z,13.60
2022-10-04T06:26:03.662Z,13.62
2022-10-04T06:28:15.882Z,13.62
2022-10-04T06:30:02.084Z,13.62
2022-10-04T06:32:05.255Z,13.62
2022-10-04T06:33:58.975Z,13.62
2022-10-04T06:36:05.991Z,13.64
2022-10-04T06:37:50.138Z,13.62
2022-10-04T06:39:48.411Z,13.64
2022-10-04T06:41:35.678Z,13.70
2022-10-04T06:43:38.345Z,13.72
2022-10-04T06:45:37.965Z,13.76
2022-10-04T06:47:20.560Z,13.80
2022-10-04T06:48:56.906Z,13.83
2022-10-04T06:50:55.060Z,13.91
2022-10-04T06:52:31.546Z,13.88
2022-10-04T06:54:25.632Z,13.95
2022-10-04T06:56:27.379Z,14.00
2022-10-04T06:58:11.352Z,14.03
2022-10-04T06:59:49.784Z,14.19
2022-10-04T07:01:28.476Z,14.25
2022-10-04T07:03:12.810Z,14.37
2022-10-04T07:05:30.757Z,14.49
2022-10-04T07:07:38.955Z,14.70
2022-10-04T07:09:19.997Z,14.76
2022-10-04T07:10:57.796Z,14.82
2022-10-04T07:12:31.735Z,14.87
2022-10-04T07:14:03.945Z,14.84
2022-10-04T07:15:46.104Z,14.96
2022-10-04T07:17:28.210Z,15.01
2022-10-04T07:19:20.591Z,15.10
2022-10-04T07:21:01.374Z,15.14
2022-10-04T07:22:41.926Z,15.18
2022-10-04T07:24:20.939Z,15.26
2022-10-04T07:25:56.522Z,15.29
2022-10-04T07:27:33.380Z,15.24
2022-10-04T07:29:20.980Z,15.30
2022-10-04T07:31:05.918Z,15.29
2022-10-04T07:32:45.741Z,15.26
2022-10-04T07:34:23.443Z,15.27
2022-10-04T07:36:11.701Z,15.26
2022-10-04T07:37:54.398Z,15.30
2022-10-04T07:41:35.850Z,15.37
2022-10-04T07:43:31.898Z,15.36
2022-10-04T07:45:32.977Z,15.28
2022-10-04T07:47:20.973Z,15.17
2022-10-04T07:48:53.182Z,15.17
2022-10-04T07:50:32.671Z,15.24
2022-10-04T07:52:29.759Z,15.28
2022-10-04T07:54:11.494Z,15.31
2022-10-04T07:55:51.187Z,15.34
2022-10-04T07:57:32.498Z,15.35
2022-10-04T07:59:29.384Z,15.34
2022-10-04T08:01:08.960Z,15.27
2022-10-04T08:02:53.419Z,15.42
2022-10-04T08:04:55.991Z,15.36
2022-10-04T08:06:35.462Z,15.38
2022-10-04T08:08:32.057Z,15.38
2022-10-04T08:10:10.897Z,15.32
2022-10-04T08:11:51.634Z,15.33
2022-10-04T08:14:00.981Z,15.42
2022-10-04T08:15:38.587Z,15.36
2022-10-04T08:17:16.736Z,15.37
2022-10-04T08:19:30.491Z,15.35
2022-10-04T08:21:18.362Z,15.35
2022-10-04T08:22:50.653Z,15.28
2022-10-04T08:25:05.222Z,15.30
2022-10-04T08:26:50.816Z,15.33
2022-10-04T08:29:07.239Z,15.50
2022-10-04T08:31:16.923Z,15.61
2022-10-04T08:32:55.434Z,15.70
2022-10-04T08:34:53.645Z,15.78
2022-10-04T08:36:42.319Z,15.83
2022-10-04T08:38:32.026Z,15.85
2022-10-04T08:40:27.314Z,15.78
2022-10-04T08:42:26.832Z,15.82
2022-10-04T08:44:01.558Z,15.81
2022-10-04T08:46:04.532Z,15.87
2022-10-04T08:47:44.716Z,15.82
2022-10-04T08:49:58.416Z,15.93
2022-10-04T08:51:59.440Z,15.97
2022-10-04T08:53:49.397Z,16.02
2022-10-04T08:55:46.740Z,16.02
2022-10-04T08:57:24.961Z,15.96
2022-10-04T08:59:15.551Z,15.92
2022-10-04T09:00:57.177Z,15.96
2022-10-04T09:02:39.391Z,15.96
2022-10-04T09:04:50.622Z,16.02
2022-10-04T09:06:33.136Z,15.97
2022-10-04T09:08:23.454Z,15.98
2022-10-04T09:11:42.755Z,16.07
2022-10-04T09:13:38.827Z,16.10
2022-10-04T09:15:31.728Z,16.10
2022-10-04T09:17:26.829Z,16.04
2022-10-04T09:19:20.277Z,16.07
2022-10-04T09:20:59.532Z,16.11
2022-10-04T09:22:57.618Z,16.13
2022-10-04T09:24:59.615Z,16.16
2022-10-04T09:26:55.423Z,16.16
2022-10-04T09:29:03.908Z,16.16
2022-10-04T09:30:42.980Z,16.16
2022-10-04T09:32:49.383Z,16.22
2022-10-04T09:34:37.273Z,16.24
2022-10-04T09:36:28.335Z,16.29
2022-10-04T09:38:29.364Z,16.28
2022-10-04T09:40:26.410Z,16.32
2022-10-04T09:42:29.494Z,16.37
2022-10-04T09:44:23.419Z,16.39
2022-10-04T09:46:10.560Z,16.40
2022-10-04T09:47:47.061Z,16.45
2022-10-04T09:49:30.908Z,16.50
2022-10-04T09:51:08.450Z,16.56
2022-10-04T09:52:47.374Z,16.57
2022-10-04T09:54:33.302Z,16.56
2022-10-04T09:56:12.745Z,16.50
2022-10-04T09:57:54.140Z,16.56
2022-10-04T09:59:29.180Z,16.52
2022-10-04T10:01:32.093Z,16.51
2022-10-04T10:03:42.574Z,16.51
2022-10-04T10:05:37.316Z,16.54
2022-10-04T10:07:21.545Z,16.54
2022-10-04T10:09:56.958Z,16.52
2022-10-04T10:12:09.255Z,16.53
2022-10-04T10:15:23.716Z,16.56
2022-10-04T10:17:09.009Z,16.59
2022-10-04T10:19:15.674Z,16.68
2022-10-04T10:20:56.887Z,16.71
2022-10-04T10:22:58.150Z,16.86
2022-10-04T10:24:33.039Z,16.93
2022-10-04T10:26:14.429Z,16.94
2022-10-04T10:27:55.760Z,16.99
2022-10-04T10:29:52.539Z,17.03
2022-10-04T10:31:24.850Z,17.07
2022-10-04T10:33:23.490Z,17.21
2022-10-04T10:35:25.062Z,17.42
2022-10-04T10:37:23.353Z,17.51
2022-10-04T10:39:19.753Z,17.58
2022-10-04T10:41:13.747Z,17.55
2022-10-04T10:42:55.316Z,17.50
2022-10-04T10:46:28.265Z,17.37
2022-10-04T10:48:05.550Z,17.37
2022-10-04T10:50:02.703Z,17.42
2022-10-04T10:51:50.397Z,17.36
2022-10-04T10:53:45.660Z,17.35
2022-10-04T10:55:40.334Z,17.28
2022-10-04T10:57:39.070Z,17.21
2022-10-04T10:59:26.426Z,17.16
2022-10-04T11:01:17.402Z,17.16
2022-10-04T11:03:15.133Z,17.22
2022-10-04T11:05:07.393Z,17.15
2022-10-04T11:07:23.454Z,17.20
2022-10-04T11:09:26.273Z,17.35
2022-10-04T11:11:29.423Z,17.50
2022-10-04T11:13:35.826Z,17.73
2022-10-04T11:15:45.745Z,17.88
2022-10-04T11:17:47.202Z,17.90
2022-10-04T11:19:43.490Z,17.77
2022-10-04T11:21:57.906Z,17.69
2022-10-04T11:23:45.068Z,17.64
2022-10-04T11:25:35.360Z,17.74
2022-10-04T11:27:19.535Z,17.94
2022-10-04T11:28:59.292Z,18.12
2022-10-04T11:30:53.030Z,18.31
2022-10-04T11:33:00.642Z,18.47
2022-10-04T11:34:59.982Z,18.57
2022-10-04T11:37:09.171Z,18.53
2022-10-04T11:39:04.218Z,18.39
2022-10-04T11:40:57.769Z,18.26
2022-10-04T11:42:49.903Z,18.22
2022-10-04T11:44:55.657Z,18.33
2022-10-04T11:46:55.743Z,18.29
2022-10-04T11:50:36.165Z,18.31
2022-10-04T11:52:20.556Z,18.31
2022-10-04T11:54:11.036Z,18.45
2022-10-04T11:55:57.766Z,18.49
2022-10-04T11:57:48.714Z,18.68
2022-10-04T11:59:49.927Z,18.78
2022-10-04T12:01:43.407Z,18.88
2022-10-04T12:03:36.356Z,19.07
2022-10-04T12:05:23.941Z,19.07
2022-10-04T12:07:27.157Z,18.90
2022-10-04T12:09:24.623Z,18.69
2022-10-04T12:11:24.222Z,18.59
2022-10-04T12:13:38.384Z,18.65
2022-10-04T12:15:22.705Z,18.72
2022-10-04T12:17:15.945Z,18.83
2022-10-04T12:19:07.828Z,19.01
2022-10-04T12:20:58.550Z,19.06
2022-10-04T12:22:39.663Z,19.09
2022-10-04T12:24:34.678Z,19.14
2022-10-04T12:26:24.169Z,19.20
2022-10-04T12:28:25.710Z,19.28
2022-10-04T12:30:23.529Z,19.21
2022-10-04T12:32:11.227Z,19.24
2022-10-04T12:33:49.600Z,19.30
2022-10-04T12:35:28.747Z,19.35
2022-10-04T12:37:17.771Z,19.37
2022-10-04T12:39:04.617Z,19.22
2022-10-04T12:40:51.947Z,19.16
2022-10-04T12:42:42.775Z,19.01
2022-10-04T12:44:30.627Z,18.84
2022-10-04T12:46:18.120Z,18.68
2022-10-04T12:48:11.956Z,18.50
2022-10-04T12:50:04.773Z,18.41
2022-10-04T12:52:09.841Z,18.34
2022-10-04T12:53:48.883Z,18.26
2022-10-04T12:56:22.703Z,18.10
2022-10-04T12:58:21.573Z,18.09
2022-10-04T13:00:15.213Z,18.04
2022-10-04T13:01:50.190Z,18.03
2022-10-04T13:03:23.903Z,17.98
2022-10-04T13:05:00.730Z,18.06
2022-10-04T13:06:48.159Z,18.12
2022-10-04T13:08:39.443Z,18.19
2022-10-04T13:10:48.288Z,18.38
2022-10-04T13:12:41.820Z,18.43
2022-10-04T13:14:29.138Z,18.39
2022-10-04T13:18:22.502Z,18.34
2022-10-04T13:20:16.725Z,18.37
2022-10-04T13:22:13.062Z,18.37
2022-10-04T13:24:05.662Z,18.48
2022-10-04T13:25:54.587Z,18.57
2022-10-04T13:28:03.841Z,18.60
2022-10-04T13:29:39.189Z,18.51
2022-10-04T13:31:36.569Z,18.47
2022-10-04T13:35:22.481Z,18.28
2022-10-04T13:37:13.140Z,18.19
2022-10-04T13:39:03.748Z,18.17
2022-10-04T13:40:44.898Z,18.05
2022-10-04T13:42:29.099Z,18.02
2022-10-04T13:44:26.565Z,17.98
2022-10-04T13:46:09.651Z,17.94
2022-10-04T13:48:21.953Z,17.93
2022-10-04T13:50:13.318Z,17.92
2022-10-04T13:52:14.454Z,17.89
2022-10-04T13:54:37.845Z,17.86
2022-10-04T13:56:28.665Z,17.86
2022-10-04T13:58:24.021Z,17.83
2022-10-04T14:00:06.704Z,17.81
2022-10-04T14:02:10.815Z,17.80
2022-10-04T14:03:54.884Z,17.83
2022-10-04T14:05:45.021Z,17.86
2022-10-04T14:07:38.623Z,17.92
2022-10-04T14:09:27.418Z,18.00
2022-10-04T14:11:33.172Z,18.10
2022-10-04T14:13:25.195Z,18.17
2022-10-04T14:15:36.059Z,18.19
2022-10-04T14:17:23.919Z,18.21
2022-10-04T14:19:17.771Z,18.18
2022-10-04T14:21:16.680Z,18.16
2022-10-04T14:23:09.511Z,18.14
2022-10-04T14:24:47.725Z,18.04
2022-10-04T14:26:31.791Z,17.86
2022-10-04T14:28:26.668Z,17.51
2022-10-04T14:30:01.948Z,17.20
2022-10-04T14:32:05.624Z,16.99
2022-10-04T14:34:02.749Z,16.92
2022-10-04T14:35:58.577Z,16.83
2022-10-04T14:38:12.232Z,16.75
2022-10-04T14:40:06.277Z,16.78
2022-10-04T14:41:50.563Z,16.79
2022-10-04T14:43:59.145Z,16.81
2022-10-04T14:45:55.864Z,16.83
2022-10-04T14:47:58.963Z,16.83
2022-10-04T14:49:43.253Z,16.79
2022-10-04T14:51:27.935Z,16.77
2022-10-04T14:53:15.572Z,16.73
2022-10-04T14:55:10.699Z,16.71
2022-10-04T14:57:04.483Z,16.70
2022-10-04T14:59:03.111Z,16.69
2022-10-04T15:00:38.072Z,16.61
2022-10-04T15:02:18.432Z,16.68
2022-10-04T15:04:26.426Z,16.74
2022-10-04T15:06:09.948Z,16.75
2022-10-04T15:07:47.447Z,16.69
2022-10-04T15:09:47.281Z,16.70
2022-10-04T15:11:41.887Z,16.64
2022-10-04T15:13:29.043Z,16.59
2022-10-04T15:15:17.187Z,16.52
2022-10-04T15:16:56.851Z,16.51
2022-10-04T15:18:49.318Z,16.49
2022-10-04T15:20:25.909Z,16.47
2022-10-04T15:22:27.860Z,16.50
2022-10-04T15:24:26.077Z,16.50
2022-10-04T15:26:06.864Z,16.53
2022-10-04T15:27:47.677Z,16.58
2022-10-04T15:29:49.730Z,16.65
2022-10-04T15:31:24.899Z,16.68
2022-10-04T15:33:18.923Z,16.70
2022-10-04T15:35:08.372Z,16.67
2022-10-04T15:37:33.347Z,16.67
2022-10-04T15:39:32.799Z,16.67
2022-10-04T15:41:30.205Z,16.64
2022-10-04T15:43:21.709Z,16.61
2022-10-04T15:45:18.245Z,16.57
2022-10-04T15:46:59.178Z,16.51
2022-10-04T15:48:52.611Z,16.44
2022-10-04T15:50:35.438Z,16.35
2022-10-04T15:52:14.834Z,16.27
2022-10-04T15:54:08.233Z,16.23
2022-10-04T15:56:11.106Z,16.17
2022-10-04T15:57:45.910Z,16.11
2022-10-04T15:59:43.224Z,16.05
2022-10-04T16:01:46.330Z,16.02
2022-10-04T16:03:49.223Z,15.97
2022-10-04T16:05:39.890Z,15.93
2022-10-04T16:07:51.341Z,15.87
2022-10-04T16:09:27.129Z,15.80
2022-10-04T16:11:16.001Z,15.78
2022-10-04T16:13:11.516Z,15.73
2022-10-04T16:15:37.939Z,15.70
2022-10-04T16:17:19.202Z,15.60
2022-10-04T16:18:57.170Z,15.56
2022-10-04T16:20:53.923Z,15.52
2022-10-04T16:22:33.683Z,15.49
2022-10-04T16:24:20.857Z,15.49
2022-10-04T16:26:04.482Z,15.46
2022-10-04T16:27:46.632Z,15.47
2022-10-04T16:29:34.077Z,15.45
2022-10-04T16:32:05.961Z,15.43
2022-10-04T16:33:42.865Z,15.36
2022-10-04T16:35:18.397Z,15.36
2022-10-04T16:37:13.551Z,15.33
2022-10-04T16:39:13.906Z,15.31
2022-10-04T16:40:52.148Z,15.32
2022-10-04T16:42:36.872Z,15.28
2022-10-04T16:44:44.347Z,15.22
2022-10-04T16:46:23.639Z,15.14
2022-10-04T16:47:59.409Z,15.10
2022-10-04T16:49:42.442Z,15.05
2022-10-04T16:51:22.584Z,15.02
2022-10-04T16:53:33.369Z,14.96
2022-10-04T16:55:29.986Z,14.95
2022-10-04T16:57:03.429Z,14.88
2022-10-04T16:58:42.498Z,14.84
2022-10-04T17:00:36.004Z,14.67
2022-10-04T17:02:45.631Z,14.48
2022-10-04T17:04:33.139Z,14.28
2022-10-04T17:06:11.359Z,14.20
2022-10-04T17:07:49.362Z,14.11
2022-10-04T17:09:27.210Z,14.04
2022-10-04T17:11:07.698Z,13.96
2022-10-04T17:12:56.312Z,13.91
2022-10-04T17:14:40.074Z,13.81
2022-10-04T17:16:14.114Z,13.69
2022-10-04T17:17:47.489Z,13.57
2022-10-04T17:19:34.499Z,13.51
2022-10-04T17:21:32.297Z,13.41
2022-10-04T17:23:04.607Z,13.27
2022-10-04T17:24:46.077Z,13.26
2022-10-04T17:26:52.893Z,13.19
2022-10-04T17:28:50.257Z,13.19
2022-10-04T17:30:27.359Z,13.19
2022-10-04T17:32:06.977Z,13.21
2022-10-04T17:33:52.453Z,13.23
2022-10-04T17:35:52.859Z,13.21
2022-10-04T17:37:51.266Z,13.13
2022-10-04T17:39:26.454Z,13.04
2022-10-04T17:41:16.620Z,13.02
2022-10-04T17:43:00.954Z,12.95
2022-10-04T17:45:08.258Z,12.91
2022-10-04T17:46:43.758Z,12.85
2022-10-04T17:48:41.217Z,12.75
2022-10-04T17:50:35.498Z,12.73
2022-10-04T17:52:37.221Z,12.70
2022-10-04T17:55:02.116Z,12.64
2022-10-04T17:56:43.677Z,12.54
2022-10-04T17:58:26.430Z,12.53
2022-10-04T18:00:10.621Z,12.49
2022-10-04T18:01:47.230Z,12.46
2022-10-04T18:03:20.949Z,12.47
2022-10-04T18:04:59.072Z,12.51
2022-10-04T18:06:39.208Z,12.43
2022-10-04T18:09:53.654Z,12.38
2022-10-04T18:12:00.550Z,12.37
2022-10-04T18:13:40.377Z,12.26
2022-10-04T18:15:18.528Z,12.21
2022-10-04T18:17:06.566Z,12.19
2022-10-04T18:18:41.305Z,12.16
2022-10-04T18:20:34.826Z,12.16
2022-10-04T18:22:18.361Z,12.10
2022-10-04T18:24:15.038Z,12.02
2022-10-04T18:25:48.143Z,11.93
2022-10-04T18:27:25.334Z,11.91
2022-10-04T18:29:00.568Z,11.87
2022-10-04T18:30:34.868Z,11.87
2022-10-04T18:32:34.324Z,11.84
2022-10-04T18:34:30.176Z,11.74
2022-10-04T18:36:25.138Z,11.64
2022-10-04T18:38:04.755Z,11.59
2022-10-04T18:39:55.316Z,11.61
2022-10-04T18:41:48.225Z,11.58
2022-10-04T18:43:50.406Z,11.57
2022-10-04T18:45:30.256Z,11.50
2022-10-04T18:47:03.544Z,11.43
2022-10-04T18:48:44.318Z,11.41
2022-10-04T18:50:38.319Z,11.34
2022-10-04T18:52:10.663Z,11.25
2022-10-04T18:53:47.569Z,11.20
2022-10-04T18:55:47.841Z,11.14
2022-10-04T18:58:11.231Z,11.07
2022-10-04T19:00:16.932Z,11.02
2022-10-04T19:02:01.037Z,11.02
2022-10-04T19:03:47.810Z,11.01
2022-10-04T19:05:38.837Z,11.01
2022-10-04T19:07:16.759Z,11.02
2022-10-04T19:09:18.344Z,11.02
2022-10-04T19:10:55.532Z,11.04
2022-10-04T19:14:20.808Z,11.01
2022-10-04T19:16:12.688Z,11.00
2022-10-04T19:17:47.345Z,10.98
2022-10-04T19:19:46.125Z,10.92
2022-10-04T19:21:26.953Z,10.89
2022-10-04T19:23:36.534Z,10.87
2022-10-04T19:25:39.771Z,10.85
2022-10-04T19:27:36.906Z,10.80
2022-10-04T19:29:51.307Z,10.77
2022-10-04T19:31:50.608Z,10.72
2022-10-04T19:33:36.975Z,10.71
2022-10-04T19:35:21.164Z,10.66
2022-10-04T19:37:16.546Z,10.71
2022-10-04T19:39:29.618Z,10.76
2022-10-04T19:41:52.241Z,10.71
2022-10-04T19:44:00.042Z,10.64
2022-10-04T19:45:45.925Z,10.61
2022-10-04T19:47:35.636Z,10.54
2022-10-04T19:49:40.895Z,10.45
2022-10-04T19:51:21.002Z,10.38
2022-10-04T19:53:06.541Z,10.30
2022-10-04T19:54:40.620Z,10.25
2022-10-04T19:56:21.629Z,10.22
2022-10-04T19:58:27.786Z,10.23
2022-10-04T20:00:00.850Z,10.21
2022-10-04T20:01:34.942Z,10.20
2022-10-04T20:03:13.212Z,10.25
2022-10-04T20:04:49.382Z,10.21
2022-10-04T20:06:26.244Z,10.27
2022-10-04T20:08:05.521Z,10.25
2022-10-04T20:09:37.459Z,10.25
2022-10-04T20:11:16.484Z,10.28
2022-10-04T20:13:10.907Z,10.24
2022-10-04T20:14:43.970Z,10.20
2022-10-04T20:16:20.252Z,10.10
2022-10-04T20:17:52.551Z,10.12
2022-10-04T20:19:30.288Z,10.11
2022-10-04T20:21:02.270Z,10.03
2022-10-04T20:22:49.658Z,10.03
2022-10-04T20:24:37.133Z,10.00
2022-10-04T20:26:55.409Z,10.01
2022-10-04T20:28:27.917Z,9.91
2022-10-04T20:30:05.342Z,9.86
2022-10-04T20:31:39.085Z,9.85
2022-10-04T20:33:11.263Z,9.88
2022-10-04T20:34:43.234Z,9.92
2022-10-04T20:36:30.559Z,9.99
2022-10-04T20:38:30.679Z,9.97
2022-10-04T20:39:56.690Z,10.03
2022-10-04T20:41:28.928Z,10.06
2022-10-04T20:43:15.928Z,10.11
2022-10-04T20:44:56.541Z,10.09
2022-10-04T20:46:38.473Z,10.15
2022-10-04T20:48:19.875Z,10.17
2022-10-04T20:49:53.674Z,10.14
2022-10-04T20:51:28.152Z,10.10
2022-10-04T20:53:21.429Z,10.09
2022-10-04T20:54:53.892Z,10.07
2022-10-04T20:56:30.741Z,10.08
2022-10-04T20:58:05.281Z,10.07
2022-10-04T20:59:37.323Z,10.06
2022-10-04T21:01:44.648Z,10.12
2022-10-04T21:03:18.313Z,10.09
2022-10-04T21:04:53.755Z,10.07
2022-10-04T21:06:25.753Z,9.99
2022-10-04T21:08:14.235Z,9.99
2022-10-04T21:09:46.495Z,9.93
2022-10-04T21:11:21.046Z,9.97
2022-10-04T21:12:53.272Z,9.93
2022-10-04T21:14:26.615Z,9.95
2022-10-04T21:15:58.729Z,9.93
2022-10-04T21:17:30.674Z,9.91
2022-10-04T21:19:43.191Z,9.92
2022-10-04T21:21:21.169Z,9.91
2022-10-04T21:23:23.513Z,9.92
2022-10-04T21:24:58.244Z,9.87
2022-10-04T21:26:31.360Z,9.83
2022-10-04T21:28:22.799Z,9.84
2022-10-04T21:29:55.715Z,9.72
2022-10-04T21:31:28.305Z,9.66
2022-10-04T21:33:00.377Z,9.66
2022-10-04T21:34:52.628Z,9.62
2022-10-04T21:36:24.398Z,9.55
2022-10-04T21:37:56.435Z,9.52
2022-10-04T21:39:28.580Z,9.51
2022-10-04T21:41:00.696Z,9.48
2022-10-04T21:42:33.013Z,9.49
2022-10-04T21:44:05.062Z,9.46
2022-10-04T21:45:37.069Z,9.47
2022-10-04T21:47:09.481Z,9.51
2022-10-04T21:48:41.450Z,9.51
2022-10-04T21:51:46.499Z,9.43
2022-10-04T21:53:18.858Z,9.57
2022-10-04T21:54:50.997Z,9.58
2022-10-04T21:56:23.054Z,9.56
2022-10-04T21:57:55.043Z,9.55
2022-10-04T21:59:27.331Z,9.58
2022-10-04T22:00:59.829Z,9.58
2022-10-04T22:02:32.010Z,9.56
2022-10-04T22:04:04.236Z,9.53
2022-10-04T22:05:36.342Z,9.52
2022-10-04T22:07:08.342Z,9.51
2022-10-04T22:08:40.488Z,9.49
2022-10-04T22:10:12.773Z,9.49
2022-10-04T22:11:44.751Z,9.49
2022-10-04T22:13:19.818Z,9.49
2022-10-04T22:14:51.827Z,9.50
2022-10-04T22:16:23.913Z,9.49
2022-10-04T22:17:56.385Z,9.48
2022-10-04T22:19:28.422Z,9.43
2022-10-04T22:21:00.967Z,9.40
2022-10-04T22:22:37.552Z,9.40
2022-10-04T22:24:21.222Z,9.46
2022-10-04T22:25:54.069Z,9.44
2022-10-04T22:27:27.172Z,9.45
2022-10-04T22:28:59.230Z,9.39
2022-10-04T22:30:36.594Z,9.36
2022-10-04T22:32:34.913Z,9.38
2022-10-04T22:34:14.493Z,9.38
2022-10-04T22:35:46.439Z,9.37
2022-10-04T22:37:24.068Z,9.40
2022-10-04T22:39:06.526Z,9.39
2022-10-04T22:40:38.542Z,9.37
2022-10-04T22:42:13.291Z,9.38
2022-10-04T22:43:49.921Z,9.39
2022-10-04T22:45:28.171Z,9.41
2022-10-04T22:47:01.873Z,9.39
2022-10-04T22:48:33.906Z,9.35
2022-10-04T22:50:21.993Z,9.34
2022-10-04T22:51:55.684Z,9.33
2022-10-04T22:53:30.312Z,9.26
2022-10-04T22:56:34.154Z,9.19
2022-10-04T22:58:06.293Z,9.14
2022-10-04T22:59:40.586Z,9.09
2022-10-04T23:01:17.467Z,9.06
2022-10-04T23:02:49.621Z,8.97
2022-10-04T23:04:24.057Z,8.93
2022-10-04T23:05:56.126Z,8.88
2022-10-04T23:07:28.093Z,8.93
2022-10-04T23:09:00.091Z,8.96
2022-10-04T23:10:32.096Z,8.96
2022-10-04T23:12:07.361Z,9.01